16:07
Airports
Links
Donate
Help keep this website running!
PayPal
Bitcoin
METAR
EDDM 191550Z 04004KT CAVOK 16/11 Q1015 NOSIG
Current Weather Conditions at EDDM
VFR 15:50:00 19-10-17
Altimeter:29.97 hg
Temp:16.0°c 61°f
Dew point:11.0°c 52°f
Wind:4 knots, 4.6 mph, 2 m/s, from 40°
Visibility:6.21 statute miles
(CAVOK)
No significant weather changes expected within 2 hours.
Past METAR reports
VFR 15:20:00 19-10-17
Altimeter:29.97 hg
Temp:17.0°c 63°f
Dew point:12.0°c 54°f
Wind:5 knots, 5.8 mph, 3 m/s, from 60°
Visibility:6.21 statute miles
(CAVOK)
No significant weather changes expected within 2 hours.
EDDM 191520Z 06005KT CAVOK 17/12 Q1015 NOSIG
VFR 14:50:00 19-10-17
Altimeter:29.97 hg
Temp:18.0°c 64°f
Dew point:12.0°c 54°f
Wind:4 knots, 4.6 mph, 2 m/s, from 40°
Visibility:6.21 statute miles
(CAVOK)
No significant weather changes expected within 2 hours.
EDDM 191450Z 04004KT CAVOK 18/12 Q1015 NOSIG
VFR 14:20:00 19-10-17
Altimeter:29.97 hg
Temp:18.0°c 64°f
Dew point:12.0°c 54°f
Wind:5 knots, 5.8 mph, 3 m/s, from 50°
Visibility:6.21 statute miles
(CAVOK)
No significant weather changes expected within 2 hours.
EDDM 191420Z 05005KT 020V080 CAVOK 18/12 Q1015 NOSIG
VFR 13:50:00 19-10-17
Altimeter:29.97 hg
Temp:19.0°c 66°f
Dew point:11.0°c 52°f
Wind:5 knots, 5.8 mph, 3 m/s, from 50°
Visibility:6.21 statute miles
(CAVOK)
No significant weather changes expected within 2 hours.
EDDM 191350Z 05005KT 360V090 CAVOK 19/11 Q1015 NOSIG
VFR 13:20:00 19-10-17
Altimeter:29.97 hg
Temp:18.0°c 64°f
Dew point:11.0°c 52°f
Wind:7 knots, 8.1 mph, 4 m/s, from 70°
Visibility:6.21 statute miles
(CAVOK)
No significant weather changes expected within 2 hours.
EDDM 191320Z 07007KT 040V100 CAVOK 18/11 Q1015 NOSIG
VFR 12:50:00 19-10-17
Altimeter:29.97 hg
Temp:18.0°c 64°f
Dew point:12.0°c 54°f
Wind:5 knots, 5.8 mph, 3 m/s, from 60°
Visibility:6.21 statute miles
(CAVOK)
No significant weather changes expected within 2 hours.
EDDM 191250Z 06005KT 030V100 CAVOK 18/12 Q1015 NOSIG
TAF
TAF EDDM 191100Z 1912/2018 06004KT CAVOK BECMG 1920/1924 4000 BR PROB30 TEMPO 2003/2006 0800 BCFG BECMG 2006/2009 26005KT 9999
Forecast at EDDM
12:00 19-10-17 to 20:00 19-10-17
NSW
Wind:4 Knots from 60°
Visibility:6.21 statute miles
NSC
BECMG 20:00 19-10-17 to 06:00 20-10-17
BR
Wind:4 Knots from 60°
Visibility:2.49 statute miles
NSC
TEMPO 03:00 20-10-17 to 06:00 20-10-17
30% BCFG
Visibility:0.5 statute miles
BECMG 06:00 20-10-17 to 18:00 20-10-17
BR
Wind:5 Knots from 260°
Visibility:6.21 statute miles
NSC